Time;durP1;ratioP1;P1;durP2;ratioP2;P2;SDS_P1;SDS_P2;PMS_P1;PMS_P2;Temp;Humidity;BMP_temperature;BMP_pressure;BME280_temperature;BME280_humidity;BME280_pressure;Samples;Min_cycle;Max_cycle;Signal;HPM_P1;HPM_P2
2023/04/05 00:01:27;;;;;;;6.10;2.90;;;3.30;99.90;;;;;;4980813;28;20043;-86
2023/04/05 00:03:53;;;;;;;;;;;4.20;99.90;;;;;;4989460;28;20073;-86
2023/04/05 00:06:21;;;;;;;5.47;2.97;;;3.30;99.90;;;;;;5007915;28;19987;-87
2023/04/05 00:08:48;;;;;;;6.28;3.20;;;4.30;99.90;;;;;;4998414;28;20030;-86
2023/04/05 00:11:15;;;;;;;6.32;3.58;;;3.20;99.90;;;;;;4991444;28;20041;-86
2023/04/05 00:13:41;;;;;;;8.70;3.22;;;3.20;99.90;;;;;;5005508;28;20046;-86
2023/04/05 00:16:08;;;;;;;5.95;3.40;;;3.40;99.90;;;;;;5001270;28;20050;-86
2023/04/05 00:18:34;;;;;;;6.75;3.40;;;4.10;99.90;;;;;;5000049;28;20046;-86
2023/04/05 00:20:59;;;;;;;6.68;3.50;;;3.10;99.90;;;;;;4982423;28;20104;-86
2023/04/05 00:23:25;;;;;;;9.07;3.80;;;3.10;99.90;;;;;;4990538;28;20092;-85
2023/04/05 00:25:52;;;;;;;6.40;3.10;;;4.00;99.90;;;;;;4969262;28;20304;-86
2023/04/05 00:28:17;;;;;;;11.93;3.60;;;3.00;99.90;;;;;;4990057;28;20072;-86
2023/04/05 00:30:43;;;;;;;6.97;3.83;;;2.90;99.90;;;;;;4983231;28;20034;-86
2023/04/05 00:33:12;;;;;;;10.25;3.78;;;3.90;99.90;;;;;;4981453;28;20050;-86
2023/04/05 00:35:37;;;;;;;8.00;3.30;;;3.10;99.90;;;;;;5002201;28;20096;-86
2023/04/05 00:38:03;;;;;;;9.00;3.90;;;2.80;99.90;;;;;;4990731;28;20112;-86
2023/04/05 00:40:29;;;;;;;7.90;3.60;;;2.80;99.90;;;;;;4986878;28;20046;-86
2023/04/05 00:42:54;;;;;;;7.68;3.67;;;2.70;99.90;;;;;;4966530;28;20034;-85
2023/04/05 00:45:20;;;;;;;9.40;4.03;;;2.70;99.90;;;;;;4987084;28;20042;-87
2023/04/05 00:47:46;;;;;;;7.07;3.40;;;2.70;99.90;;;;;;4987833;28;20287;-86
2023/04/05 00:50:12;;;;;;;7.67;3.37;;;2.60;99.90;;;;;;4965064;28;20034;-86
2023/04/05 00:52:41;;;;;;;7.82;3.65;;;2.60;99.90;;;;;;5004788;28;20042;-86
2023/04/05 00:55:09;;;;;;;7.40;4.00;;;2.80;99.90;;;;;;5000676;28;20057;-87
2023/04/05 00:57:37;;;;;;;8.98;3.88;;;2.60;99.90;;;;;;4986156;28;20041;-87
2023/04/05 01:00:09;;;;;;;9.32;3.70;;;2.60;99.90;;;;;;4986277;28;20034;-87
2023/04/05 01:02:51;;;;;;;10.07;3.35;;;2.60;99.90;;;;;;5005625;28;20042;-86
2023/04/05 01:05:42;;;;;;;6.57;3.10;;;2.60;99.90;;;;;;4982299;28;20069;-86
2023/04/05 01:08:15;;;;;;;8.60;3.95;;;3.00;99.90;;;;;;4980331;28;20053;-86
2023/04/05 01:10:45;;;;;;;7.22;3.50;;;2.60;99.90;;;;;;5002830;28;20124;-87
2023/04/05 01:13:11;;;;;;;7.53;3.90;;;2.90;99.90;;;;;;5003907;28;20038;-87
2023/04/05 01:15:37;;;;;;;7.13;4.03;;;2.50;99.90;;;;;;5001071;28;20112;-87
2023/04/05 01:18:03;;;;;;;8.30;3.80;;;2.50;99.90;;;;;;4987776;28;20484;-87
2023/04/05 01:20:36;;;;;;;9.55;3.78;;;2.50;99.90;;;;;;4970213;28;20045;-87
2023/04/05 01:23:32;;;;;;;9.82;3.70;;;2.50;99.90;;;;;;5003857;28;20041;-87
2023/04/05 01:26:30;;;;;;;10.23;5.00;;;2.50;99.90;;;;;;5003397;28;20043;-87
2023/04/05 01:29:28;;;;;;;7.70;3.97;;;2.50;99.90;;;;;;4984772;28;20034;-87
2023/04/05 01:32:08;;;;;;;12.00;4.93;;;2.40;99.90;;;;;;4999410;28;20061;-87
2023/04/05 01:35:10;;;;;;;9.63;4.05;;;2.40;99.90;;;;;;4989184;28;20490;-86
2023/04/05 01:37:38;;;;;;;7.47;4.03;;;2.40;99.90;;;;;;4997651;28;20038;-87
2023/04/05 01:40:05;;;;;;;10.75;4.05;;;2.40;99.90;;;;;;4982305;28;20042;-87
2023/04/05 01:42:31;;;;;;;9.15;4.13;;;2.40;99.90;;;;;;5006908;28;20406;-87
2023/04/05 01:44:57;;;;;;;11.05;3.95;;;2.40;99.90;;;;;;4981051;28;20236;-87
2023/04/05 01:47:23;;;;;;;9.35;4.07;;;2.40;99.90;;;;;;4983988;28;20092;-86
2023/04/05 01:49:49;;;;;;;8.90;4.53;;;2.40;99.90;;;;;;4990172;28;20121;-87
2023/04/05 01:52:15;;;;;;;9.02;4.15;;;2.90;99.90;;;;;;5001909;28;20057;-87
2023/04/05 01:54:40;;;;;;;8.27;4.13;;;3.70;99.90;;;;;;4988804;28;20069;-87
2023/04/05 01:57:06;;;;;;;10.50;4.23;;;2.20;99.90;;;;;;5001262;28;20329;-86
2023/04/05 01:59:32;;;;;;;9.20;4.67;;;2.20;99.90;;;;;;5006044;28;20289;-87
2023/04/05 02:01:58;;;;;;;8.48;4.20;;;2.20;99.90;;;;;;4970069;28;20035;-87
2023/04/05 02:04:23;;;;;;;10.47;4.50;;;2.20;99.90;;;;;;5003354;28;20034;-86
2023/04/05 02:06:49;;;;;;;9.03;4.73;;;2.20;99.90;;;;;;5000486;28;20378;-87
2023/04/05 02:09:15;;;;;;;9.73;4.50;;;3.70;99.90;;;;;;5005468;28;20047;-87
2023/04/05 02:11:41;;;;;;;9.77;5.47;;;2.20;99.90;;;;;;4975595;28;20104;-87
2023/04/05 02:14:06;;;;;;;12.85;5.00;;;2.20;99.90;;;;;;5001565;28;20046;-87
2023/04/05 02:16:32;;;;;;;9.13;4.60;;;2.10;99.90;;;;;;4965368;28;20042;-87
2023/04/05 02:18:58;;;;;;;8.43;4.20;;;2.20;99.90;;;;;;4996935;28;20100;-87
2023/04/05 02:21:25;;;;;;;10.80;4.82;;;2.50;99.90;;;;;;5007335;28;20045;-87
2023/04/05 02:23:51;;;;;;;;;;;2.00;99.90;;;;;;5005599;28;20120;-87
2023/04/05 02:26:16;;;;;;;9.43;5.00;;;2.10;99.90;;;;;;4994432;28;19940;-87
2023/04/05 02:28:42;;;;;;;9.55;4.75;;;2.70;99.90;;;;;;5000073;28;20053;-87
2023/04/05 02:31:12;;;;;;;10.43;4.57;;;2.00;99.90;;;;;;4994642;28;20128;-87
2023/04/05 02:33:38;;;;;;;9.32;4.85;;;1.90;99.90;;;;;;4981075;28;20424;-87
2023/04/05 02:36:05;;;;;;;10.20;5.00;;;1.70;99.90;;;;;;5000809;28;20044;-87
2023/04/05 02:38:35;;;;;;;10.02;4.88;;;1.90;99.90;;;;;;4985672;28;20043;-87
2023/04/05 02:41:01;;;;;;;9.60;4.78;;;1.90;99.90;;;;;;5001522;28;20038;-87
2023/04/05 02:43:27;;;;;;;12.48;5.70;;;1.80;99.90;;;;;;4985720;28;20235;-86
2023/04/05 02:45:53;;;;;;;13.40;6.28;;;2.70;99.90;;;;;;4976427;28;20394;-87
2023/04/05 02:48:19;;;;;;;10.05;5.10;;;1.70;99.90;;;;;;4978950;28;20030;-87
2023/04/05 02:50:48;;;;;;;14.35;6.43;;;1.70;99.90;;;;;;4964940;28;20044;-86
2023/04/05 02:53:15;;;;;;;10.43;5.45;;;1.60;99.90;;;;;;4957915;28;20046;-87
2023/04/05 02:55:42;;;;;;;9.30;5.43;;;1.60;99.90;;;;;;4997790;28;20041;-87
2023/04/05 02:58:08;;;;;;;10.40;5.47;;;3.10;99.90;;;;;;4980552;28;20038;-87
2023/04/05 03:00:33;;;;;;;10.77;5.00;;;1.50;99.90;;;;;;5002281;28;20085;-87
2023/04/05 03:02:59;;;;;;;11.73;5.60;;;1.90;99.90;;;;;;4972399;28;20066;-87
2023/04/05 03:05:26;;;;;;;9.93;5.13;;;1.50;99.90;;;;;;4982896;28;20041;-86
2023/04/05 03:07:52;;;;;;;13.25;5.32;;;1.50;99.90;;;;;;4978394;28;20043;-87
2023/04/05 03:10:21;;;;;;;10.93;5.55;;;1.50;99.90;;;;;;4974471;28;20041;-86
2023/04/05 03:12:47;;;;;;;10.25;5.15;;;1.50;99.90;;;;;;4993075;28;20030;-86
2023/04/05 03:15:13;;;;;;;12.60;5.70;;;1.40;99.90;;;;;;5005044;28;20042;-87
2023/04/05 03:17:43;;;;;;;14.25;5.47;;;1.40;99.90;;;;;;5004662;28;20128;-87
2023/04/05 03:20:10;;;;;;;10.23;5.03;;;1.40;99.90;;;;;;4996568;28;20052;-87
2023/04/05 03:22:35;;;;;;;10.45;5.55;;;1.40;99.90;;;;;;4992910;28;20041;-87
2023/04/05 03:25:01;;;;;;;15.67;5.73;;;2.90;99.90;;;;;;4983601;28;20145;-87
2023/04/05 03:27:28;;;;;;;11.68;5.43;;;1.50;99.90;;;;;;4994197;28;20394;-87
2023/04/05 03:29:54;;;;;;;12.82;6.05;;;2.50;99.90;;;;;;4958756;28;20394;-87
2023/04/05 03:32:20;;;;;;;10.60;5.22;;;1.40;99.90;;;;;;4996478;28;20063;-87
2023/04/05 03:34:45;;;;;;;10.27;5.63;;;1.50;99.90;;;;;;4983346;28;20041;-87
2023/04/05 03:37:11;;;;;;;11.97;5.47;;;1.50;99.90;;;;;;4994351;28;20661;-87
2023/04/05 03:39:37;;;;;;;15.23;6.87;;;1.50;99.90;;;;;;4974509;28;20290;-87
2023/04/05 03:42:03;;;;;;;14.77;6.55;;;1.50;99.90;;;;;;4985338;28;20049;-87
2023/04/05 03:44:29;;;;;;;15.43;6.80;;;1.50;99.90;;;;;;5006264;28;20038;-88
2023/04/05 03:46:54;;;;;;;13.40;6.47;;;1.50;99.90;;;;;;4976112;28;20501;-88
2023/04/05 03:49:20;;;;;;;12.77;6.88;;;2.40;99.90;;;;;;5001240;28;20594;-88
2023/04/05 03:51:46;;;;;;;12.82;6.70;;;1.70;99.90;;;;;;5004397;28;20141;-87
2023/04/05 03:54:12;;;;;;;13.10;7.05;;;1.50;99.90;;;;;;4987349;28;20097;-87
2023/04/05 03:56:38;;;;;;;12.85;6.97;;;1.50;99.90;;;;;;4995806;28;20133;-87
2023/04/05 03:59:03;;;;;;;16.10;6.93;;;3.00;99.90;;;;;;5000326;28;20113;-87
2023/04/05 04:01:30;;;;;;;14.63;6.93;;;1.60;99.90;;;;;;4980608;28;20285;-87
2023/04/05 04:03:56;;;;;;;13.70;7.35;;;1.90;99.90;;;;;;4980664;28;20085;-88
2023/04/05 04:06:25;;;;;;;17.95;7.75;;;1.50;99.90;;;;;;4979668;28;20486;-87
2023/04/05 04:08:51;;;;;;;12.98;7.30;;;2.60;99.90;;;;;;4974035;28;20117;-88
2023/04/05 04:11:17;;;;;;;14.60;7.18;;;1.90;99.90;;;;;;4965493;28;20479;-88
2023/04/05 04:13:43;;;;;;;15.80;7.90;;;3.10;99.90;;;;;;4977473;28;20038;-86
2023/04/05 04:16:09;;;;;;;14.35;7.38;;;1.50;99.90;;;;;;4999970;28;20054;-86
2023/04/05 04:18:34;;;;;;;14.95;7.60;;;1.40;99.90;;;;;;4974955;28;20084;-86
2023/04/05 04:21:05;;;;;;;14.25;7.32;;;1.40;99.90;;;;;;5005602;28;20087;-86
2023/04/05 04:23:33;;;;;;;16.73;8.65;;;1.40;99.90;;;;;;5000534;28;20125;-86
2023/04/05 04:26:00;;;;;;;19.73;8.32;;;1.50;99.90;;;;;;4998323;28;20043;-86
2023/04/05 04:28:27;;;;;;;13.93;7.45;;;2.50;99.90;;;;;;4978735;28;20034;-86
2023/04/05 04:30:53;;;;;;;16.88;8.23;;;2.90;99.90;;;;;;5008030;28;20100;-88
2023/04/05 04:33:19;;;;;;;17.87;8.17;;;1.30;99.90;;;;;;4973794;28;20047;-87
2023/04/05 04:35:45;;;;;;;17.83;7.50;;;2.30;99.90;;;;;;5003001;28;20371;-84
2023/04/05 04:38:19;;;;;;;14.98;7.85;;;1.30;99.90;;;;;;4976213;28;20041;-85
2023/04/05 04:40:45;;;;;;;15.63;7.30;;;1.30;99.90;;;;;;4987609;28;20034;-86
2023/04/05 04:43:18;;;;;;;16.92;8.45;;;1.20;99.90;;;;;;4989173;28;20053;-85
2023/04/05 04:45:49;;;;;;;14.98;7.28;;;1.20;99.90;;;;;;5008532;28;20122;-86
2023/04/05 04:48:17;;;;;;;16.20;7.80;;;1.20;99.90;;;;;;5008150;28;20129;-84
2023/04/05 04:50:44;;;;;;;17.80;8.95;;;1.20;99.90;;;;;;4986280;28;20089;-85
2023/04/05 04:53:12;;;;;;;15.00;7.75;;;1.10;99.90;;;;;;5001981;28;20116;-87
2023/04/05 04:55:41;;;;;;;17.90;7.85;;;1.10;99.90;;;;;;5001546;28;20042;-78
2023/04/05 04:58:11;;;;;;;13.40;7.43;;;1.10;99.90;;;;;;4998914;28;20049;-78
2023/04/05 05:00:43;;;;;;;14.63;8.02;;;1.10;99.90;;;;;;4977368;28;20081;-82
2023/04/05 05:03:12;;;;;;;18.48;8.23;;;2.30;99.90;;;;;;4972525;28;20074;-82
2023/04/05 05:05:47;;;;;;;16.80;8.13;;;1.10;99.90;;;;;;4973044;28;20126;-82
2023/04/05 05:08:13;;;;;;;15.27;8.32;;;1.10;99.90;;;;;;5005697;28;20033;-82
2023/04/05 05:10:39;;;;;;;17.40;8.68;;;1.10;99.90;;;;;;5001239;28;20442;-82
2023/04/05 05:13:05;;;;;;;16.35;8.02;;;1.90;99.90;;;;;;5000309;28;20034;-82
2023/04/05 05:15:34;;;;;;;16.33;7.85;;;1.10;99.90;;;;;;4990111;28;20045;-82
2023/04/05 05:18:00;;;;;;;17.13;8.38;;;1.10;99.90;;;;;;4995709;28;20042;-82
2023/04/05 05:20:29;;;;;;;18.08;8.52;;;1.10;99.90;;;;;;4984296;28;20045;-82
2023/04/05 05:22:54;;;;;;;17.92;8.30;;;1.20;99.90;;;;;;4982658;28;20104;-82
2023/04/05 05:25:21;;;;;;;19.52;8.15;;;1.70;99.90;;;;;;4995981;28;20042;-82
2023/04/05 05:27:50;;;;;;;16.75;8.45;;;1.10;99.90;;;;;;4994540;28;20041;-82
2023/04/05 05:30:16;;;;;;;21.13;9.23;;;1.10;99.90;;;;;;4994591;28;20046;-82
2023/04/05 05:32:42;;;;;;;;;;;1.20;99.90;;;;;;4975851;28;20121;-83
2023/04/05 05:35:08;;;;;;;16.80;8.02;;;2.70;99.90;;;;;;4980164;28;19960;-82
2023/04/05 05:37:34;;;;;;;16.42;8.90;;;2.40;99.90;;;;;;4979063;28;20112;-83
2023/04/05 05:40:02;;;;;;;16.27;8.65;;;1.70;99.90;;;;;;4978512;28;20073;-82
2023/04/05 05:42:28;;;;;;;16.52;8.95;;;1.30;99.90;;;;;;4997485;28;20042;-82
2023/04/05 05:44:54;;;;;;;20.92;9.15;;;2.80;99.90;;;;;;4974940;28;20091;-82
2023/04/05 05:47:20;;;;;;;15.90;8.30;;;1.40;99.90;;;;;;4998044;28;20073;-82
2023/04/05 05:49:48;;;;;;;17.25;9.65;;;1.50;99.90;;;;;;4979293;28;20041;-82
2023/04/05 05:52:14;;;;;;;17.15;9.50;;;1.50;99.90;;;;;;4973202;28;20480;-82
2023/04/05 05:54:42;;;;;;;17.77;9.45;;;1.60;99.90;;;;;;5002199;28;20642;-83
2023/04/05 05:57:08;;;;;;;17.35;8.95;;;1.70;99.90;;;;;;4977694;28;20524;-82
2023/04/05 05:59:34;;;;;;;15.68;8.52;;;1.80;99.90;;;;;;4986235;28;20070;-83
2023/04/05 06:02:00;;;;;;;15.55;8.60;;;2.40;99.90;;;;;;4981445;28;20073;-82
2023/04/05 06:04:27;;;;;;;14.75;8.60;;;2.00;99.90;;;;;;4997060;28;20037;-82
2023/04/05 06:06:53;;;;;;;15.68;8.77;;;3.70;99.90;;;;;;4977173;28;20057;-82
2023/04/05 06:09:20;;;;;;;15.02;8.85;;;2.40;99.90;;;;;;4998202;28;20042;-82
2023/04/05 06:11:46;;;;;;;16.15;8.05;;;2.30;99.90;;;;;;4992048;28;20034;-83
2023/04/05 06:14:11;;;;;;;17.20;8.07;;;2.30;99.90;;;;;;4978193;28;20046;-82
2023/04/05 06:16:37;;;;;;;15.80;8.82;;;2.60;99.90;;;;;;4966110;28;20491;-82
2023/04/05 06:19:03;;;;;;;15.17;8.80;;;2.50;99.90;;;;;;4980912;28;20038;-84
2023/04/05 06:21:28;;;;;;;15.65;8.50;;;2.80;99.90;;;;;;4996256;28;20049;-83
2023/04/05 06:23:54;;;;;;;15.33;8.57;;;2.70;99.90;;;;;;4999207;28;20045;-82
2023/04/05 06:26:25;;;;;;;15.80;8.50;;;3.90;99.90;;;;;;4994883;28;20300;-83
2023/04/05 06:28:53;;;;;;;15.95;8.07;;;2.80;99.90;;;;;;5003779;28;20706;-82
2023/04/05 06:31:24;;;;;;;17.63;7.95;;;2.90;99.90;;;;;;4993094;28;20051;-83
2023/04/05 06:33:50;;;;;;;15.68;8.48;;;3.20;99.90;;;;;;5004522;28;20482;-82
2023/04/05 06:36:16;;;;;;;12.43;7.70;;;3.20;99.90;;;;;;4983942;28;20092;-82
2023/04/05 06:38:42;;;;;;;15.27;8.00;;;3.20;99.90;;;;;;4976988;28;20049;-82
2023/04/05 06:41:07;;;;;;;12.23;7.23;;;3.30;99.90;;;;;;5000338;28;20053;-83
2023/04/05 06:43:33;;;;;;;13.17;7.67;;;3.50;99.90;;;;;;4958255;28;20316;-83
2023/04/05 06:45:59;;;;;;;14.50;8.10;;;3.50;99.90;;;;;;4977732;28;20038;-82
2023/04/05 06:48:27;;;;;;;12.30;7.05;;;3.60;99.90;;;;;;4983648;28;20038;-83
2023/04/05 06:51:00;;;;;;;13.98;7.78;;;3.70;99.90;;;;;;4979724;28;20491;-83
2023/04/05 06:53:26;;;;;;;12.15;7.95;;;3.90;99.90;;;;;;4981089;28;20435;-84
2023/04/05 06:55:56;;;;;;;;;;;4.80;99.90;;;;;;4998561;28;20097;-83
2023/04/05 06:58:22;;;;;;;14.38;7.85;;;4.20;99.90;;;;;;5000049;28;20075;-83
2023/04/05 07:00:49;;;;;;;;;;;4.50;99.90;;;;;;4980704;28;20053;-83
2023/04/05 07:03:15;;;;;;;11.50;7.22;;;4.50;99.90;;;;;;4988328;28;20366;-83
2023/04/05 07:05:49;;;;;;;12.30;7.30;;;4.80;99.90;;;;;;5000876;28;20036;-83
2023/04/05 07:08:15;;;;;;;11.75;6.97;;;5.50;99.90;;;;;;4979118;28;20510;-83
2023/04/05 07:10:40;;;;;;;9.50;6.70;;;6.80;99.90;;;;;;4974354;28;20128;-83
2023/04/05 07:13:06;;;;;;;12.53;7.57;;;7.00;99.90;;;;;;4968629;28;20046;-83
2023/04/05 07:15:32;;;;;;;11.87;7.00;;;7.20;99.90;;;;;;4982045;28;20297;-83
2023/04/05 07:17:58;;;;;;;11.55;7.25;;;7.60;99.90;;;;;;4963377;28;20091;-83
2023/04/05 07:20:23;;;;;;;13.07;6.40;;;7.80;99.90;;;;;;4959568;28;20132;-84
2023/04/05 07:22:49;;;;;;;11.73;6.50;;;8.30;99.90;;;;;;4999642;28;20041;-83
2023/04/05 07:25:15;;;;;;;10.37;7.00;;;8.50;99.90;;;;;;4970611;28;20294;-84
2023/04/05 07:27:40;;;;;;;13.75;7.05;;;8.70;99.90;;;;;;4983460;28;20276;-84
2023/04/05 07:30:07;;;;;;;9.07;6.25;;;8.80;99.90;;;;;;4977793;28;20039;-84
2023/04/05 07:32:33;;;;;;;9.32;6.32;;;8.60;99.90;;;;;;4962461;28;20034;-84
2023/04/05 07:34:59;;;;;;;11.18;6.78;;;8.70;99.90;;;;;;4983103;28;20041;-84
2023/04/05 07:37:26;;;;;;;11.20;6.40;;;9.00;99.90;;;;;;5002520;28;20497;-84
2023/04/05 07:39:52;;;;;;;9.43;6.07;;;9.30;99.90;;;;;;4981214;28;20116;-83
2023/04/05 07:42:20;;;;;;;9.65;6.57;;;9.60;99.90;;;;;;4983809;28;20482;-83
2023/04/05 07:44:46;;;;;;;11.77;6.63;;;9.70;99.90;;;;;;4978930;28;20129;-85
2023/04/05 07:47:12;;;;;;;12.23;7.20;;;9.70;99.90;;;;;;5004023;28;20038;-85
2023/04/05 07:49:37;;;;;;;10.88;5.93;;;9.80;99.90;;;;;;4979067;28;20406;-85
2023/04/05 07:52:05;;;;;;;11.15;6.25;;;10.10;99.90;;;;;;4982882;28;20031;-84
2023/04/05 07:54:34;;;;;;;9.85;6.35;;;10.30;99.90;;;;;;4985905;28;20486;-83
2023/04/05 07:57:00;;;;;;;12.10;6.70;;;10.50;99.90;;;;;;4979810;28;20057;-83
2023/04/05 07:59:26;;;;;;;8.50;5.80;;;10.70;99.90;;;;;;4983001;28;20038;-85
2023/04/05 08:01:52;;;;;;;9.77;6.60;;;10.80;99.90;;;;;;4960426;28;20507;-85
2023/04/05 08:04:19;;;;;;;11.73;6.05;;;10.90;99.90;;;;;;4967703;28;20620;-84
2023/04/05 08:06:46;;;;;;;12.07;6.55;;;11.00;99.90;;;;;;4982420;28;20045;-83
2023/04/05 08:09:11;;;;;;;9.38;6.07;;;11.10;99.90;;;;;;4977913;28;20124;-83
2023/04/05 08:11:37;;;;;;;9.55;5.60;;;11.50;99.90;;;;;;4966156;28;20435;-84
2023/04/05 08:14:04;;;;;;;11.20;6.45;;;11.40;99.90;;;;;;4987562;28;20030;-83
2023/04/05 08:16:32;;;;;;;9.77;6.07;;;11.20;99.90;;;;;;4998794;28;20145;-84
2023/04/05 08:18:58;;;;;;;9.32;6.00;;;11.40;99.90;;;;;;4972294;28;20049;-86
2023/04/05 08:21:25;;;;;;;7.97;5.55;;;11.30;99.90;;;;;;4956163;28;20501;-84
2023/04/05 08:23:51;;;;;;;10.05;5.57;;;11.30;99.90;;;;;;4992161;28;20514;-85
2023/04/05 08:26:17;;;;;;;8.70;5.50;;;11.80;99.60;;;;;;4968345;28;20080;-86
2023/04/05 08:28:42;;;;;;;7.88;5.35;;;11.60;98.80;;;;;;4962782;28;20511;-84
2023/04/05 08:31:08;;;;;;;8.18;5.03;;;12.10;99.60;;;;;;4954601;28;20042;-85
2023/04/05 08:33:34;;;;;;;8.20;5.32;;;12.10;98.80;;;;;;4981874;28;20057;-83
2023/04/05 08:36:05;;;;;;;9.93;5.25;;;12.60;99.30;;;;;;4996264;28;20559;-85
2023/04/05 08:38:30;;;;;;;8.13;4.68;;;12.70;97.30;;;;;;4981017;28;20045;-83
2023/04/05 08:41:05;;;;;;;8.00;4.88;;;13.10;98.00;;;;;;4993201;28;20620;-84
2023/04/05 08:43:44;;;;;;;7.82;4.43;;;13.30;96.90;;;;;;4978345;28;20120;-84
2023/04/05 08:46:16;;;;;;;7.20;4.75;;;13.40;96.00;;;;;;4982902;28;20043;-84
2023/04/05 08:48:42;;;;;;;8.02;4.53;;;13.70;95.90;;;;;;4984764;28;20065;-82
2023/04/05 08:51:08;;;;;;;6.35;4.20;;;13.60;95.80;;;;;;4983788;28;20454;-82
2023/04/05 08:53:34;;;;;;;;;;;14.10;94.40;;;;;;4981609;28;20081;-85
2023/04/05 08:56:02;;;;;;;5.28;3.53;;;14.40;93.00;;;;;;4985045;28;19917;-83
2023/04/05 08:58:30;;;;;;;7.15;4.03;;;14.10;92.10;;;;;;4993143;28;20129;-85
2023/04/05 09:00:57;;;;;;;6.40;4.18;;;14.50;93.00;;;;;;4982189;28;20128;-84
2023/04/05 09:03:30;;;;;;;5.57;3.60;;;14.70;91.10;;;;;;4983729;28;20088;-84
2023/04/05 09:05:58;;;;;;;6.60;4.10;;;15.00;92.10;;;;;;4982571;28;20451;-84
2023/04/05 09:08:24;;;;;;;8.63;4.20;;;15.10;91.10;;;;;;4986383;28;20124;-84
2023/04/05 09:10:53;;;;;;;6.53;4.28;;;15.00;92.60;;;;;;4987117;28;20442;-84
2023/04/05 09:13:19;;;;;;;6.32;4.18;;;15.20;91.40;;;;;;4978970;28;20119;-84
2023/04/05 09:15:45;;;;;;;8.18;4.28;;;15.30;91.60;;;;;;4956274;28;20038;-84
2023/04/05 09:18:11;;;;;;;6.28;4.10;;;14.70;91.40;;;;;;4980269;28;20096;-84
2023/04/05 09:20:37;;;;;;;5.97;3.97;;;15.10;91.00;;;;;;4988336;28;20046;-84
2023/04/05 09:23:03;;;;;;;6.93;4.22;;;14.90;90.80;;;;;;4985293;28;20054;-83
2023/04/05 09:25:38;;;;;;;6.60;4.43;;;14.90;91.30;;;;;;4976056;28;20053;-83
2023/04/05 09:28:11;;;;;;;7.25;3.80;;;14.80;91.40;;;;;;4978092;28;20173;-83
2023/04/05 09:30:37;;;;;;;5.95;4.10;;;15.10;90.20;;;;;;4986394;28;20306;-84
2023/04/05 09:33:06;;;;;;;7.30;3.60;;;15.00;90.30;;;;;;4992655;28;20046;-84
2023/04/05 09:35:32;;;;;;;6.43;3.88;;;14.90;90.20;;;;;;4971427;28;20052;-82
2023/04/05 09:38:00;;;;;;;7.78;3.65;;;15.60;89.60;;;;;;4982988;28;20096;-82
2023/04/05 09:40:52;;;;;;;6.88;3.88;;;15.60;88.90;;;;;;4995519;28;20046;-83
2023/04/05 09:43:38;;;;;;;5.95;3.78;;;15.40;87.70;;;;;;4953537;28;20050;-83
2023/04/05 09:46:04;;;;;;;6.15;3.85;;;14.90;87.70;;;;;;4969420;28;20038;-84
2023/04/05 09:48:50;;;;;;;6.70;3.45;;;15.20;88.10;;;;;;4955195;28;20068;-86
2023/04/05 09:51:16;;;;;;;6.35;3.65;;;16.20;88.40;;;;;;4989727;28;20053;-83
2023/04/05 09:54:03;;;;;;;4.57;3.00;;;16.30;86.50;;;;;;4968555;28;20038;-83
2023/04/05 09:56:34;;;;;;;7.30;3.10;;;16.30;84.40;;;;;;4999429;28;20085;-84
2023/04/05 09:59:05;;;;;;;4.47;2.70;;;16.10;85.60;;;;;;4985064;28;20038;-84
2023/04/05 10:01:31;;;;;;;6.03;3.20;;;15.80;85.80;;;;;;4999025;28;20053;-80
2023/04/05 10:03:58;;;;;;;5.38;3.08;;;16.50;85.10;;;;;;4973625;28;20046;-82
2023/04/05 10:06:42;;;;;;;7.10;2.75;;;16.30;84.30;;;;;;4958702;28;20038;-81
2023/04/05 10:09:10;;;;;;;5.10;2.88;;;16.70;83.40;;;;;;4984933;28;20487;-82
2023/04/05 10:11:37;;;;;;;4.97;3.03;;;16.80;83.10;;;;;;4999856;28;20444;-81
2023/04/05 10:14:05;;;;;;;4.72;3.00;;;17.10;84.70;;;;;;4967328;28;20082;-80
2023/04/05 10:17:03;;;;;;;4.47;2.78;;;17.00;83.10;;;;;;4998485;28;20060;-83
2023/04/05 10:19:56;;;;;;;5.30;3.05;;;17.10;82.20;;;;;;4997293;28;20041;-83
2023/04/05 10:22:43;;;;;;;5.97;2.92;;;17.00;83.00;;;;;;4975714;28;20042;-82
2023/04/05 10:25:12;;;;;;;;;;;17.30;81.70;;;;;;4979376;28;20052;-83
2023/04/05 10:27:54;;;;;;;4.43;2.22;;;16.40;80.50;;;;;;4976589;28;20283;-82
2023/04/05 10:30:23;;;;;;;5.65;3.00;;;16.30;80.00;;;;;;4980712;28;20030;-81
2023/04/05 10:36:04;;;;;;;4.97;3.00;;;16.80;81.70;;;;;;5126425;27;20120;-82
2023/04/05 10:39:03;;;;;;;5.80;3.20;;;17.80;80.90;;;;;;5105668;28;20047;-82
2023/04/05 10:41:53;;;;;;;4.47;3.13;;;17.40;79.40;;;;;;5106116;28;20484;-86
2023/04/05 10:44:18;;;;;;;4.88;3.30;;;17.40;80.40;;;;;;5110000;28;20024;-85
2023/04/05 10:46:45;;;;;;;6.47;3.33;;;17.80;79.90;;;;;;5093254;28;20425;-82
2023/04/05 10:49:29;;;;;;;;;;;18.10;79.10;;;;;;5094057;28;20118;-81
2023/04/05 10:51:55;;;;;;;5.15;3.10;;;18.40;78.50;;;;;;5110146;28;20303;-81
2023/04/05 10:54:24;;;;;;;5.85;3.75;;;18.20;79.30;;;;;;5110696;28;20039;-81
2023/04/05 10:56:50;;;;;;;5.47;3.47;;;17.30;78.30;;;;;;5108850;28;20032;-81
2023/04/05 10:59:17;;;;;;;7.60;3.53;;;17.60;79.50;;;;;;5108572;28;20058;-81
2023/04/05 11:01:45;;;;;;;6.38;3.47;;;17.90;79.00;;;;;;5109662;28;20425;-81
2023/04/05 11:04:11;;;;;;;4.03;3.20;;;18.20;79.80;;;;;;5109325;28;20395;-81
2023/04/05 11:06:37;;;;;;;7.32;3.45;;;18.10;78.10;;;;;;5108756;28;20043;-81
2023/04/05 11:09:20;;;;;;;7.38;3.53;;;18.20;78.50;;;;;;5123650;28;20402;-81
2023/04/05 11:11:47;;;;;;;8.10;3.80;;;18.00;78.80;;;;;;5106784;28;20043;-81
2023/04/05 11:14:35;;;;;;;5.18;3.72;;;18.00;78.30;;;;;;5125790;28;20069;-81
2023/04/05 11:17:26;;;;;;;4.55;3.08;;;18.70;79.00;;;;;;5107716;28;20031;-81
2023/04/05 11:20:10;;;;;;;4.45;3.55;;;19.40;76.60;;;;;;5125356;27;20031;-81
2023/04/05 11:22:36;;;;;;;6.40;3.10;;;19.80;76.10;;;;;;5124433;28;20034;-89
2023/04/05 11:25:01;;;;;;;6.28;3.65;;;20.00;76.70;;;;;;5089466;28;20036;-88
2023/04/05 11:27:39;;;;;;;5.78;3.45;;;19.90;76.10;;;;;;5089489;28;20054;-89
2023/04/05 11:30:06;;;;;;;6.32;3.65;;;19.80;75.50;;;;;;5090485;28;20038;-88
2023/04/05 11:32:50;;;;;;;4.82;3.13;;;19.40;75.60;;;;;;5073698;28;20039;-88
2023/04/05 11:35:22;;;;;;;6.30;3.65;;;18.70;75.60;;;;;;5106235;28;20058;-88
2023/04/05 11:37:59;;;;;;;5.40;3.47;;;18.30;75.70;;;;;;5093210;28;20471;-88
2023/04/05 11:40:36;;;;;;;6.15;3.70;;;17.90;74.50;;;;;;5108829;28;20039;-84
2023/04/05 11:43:06;;;;;;;5.35;3.40;;;18.50;75.60;;;;;;5091279;28;20027;-84
2023/04/05 11:45:34;;;;;;;5.15;3.58;;;17.90;75.40;;;;;;5121139;28;20157;-84
2023/04/05 11:48:08;;;;;;;4.93;3.20;;;18.00;75.30;;;;;;5095389;28;20047;-85
2023/04/05 11:50:35;;;;;;;6.03;3.35;;;18.40;76.80;;;;;;5094306;28;20388;-84
2023/04/05 11:53:11;;;;;;;4.25;3.20;;;19.10;75.40;;;;;;5078248;28;20056;-84
2023/04/05 11:55:38;;;;;;;5.25;3.28;;;18.70;73.70;;;;;;5112075;28;20074;-83
2023/04/05 11:58:31;;;;;;;5.88;3.65;;;18.80;74.70;;;;;;5077847;28;20027;-84
2023/04/05 12:00:59;;;;;;;6.05;3.20;;;19.10;75.20;;;;;;5094000;28;20047;-85
2023/04/05 12:03:27;;;;;;;6.38;3.72;;;19.40;75.60;;;;;;5111028;28;20964;-87
2023/04/05 12:05:55;;;;;;;4.72;3.22;;;19.50;74.20;;;;;;5093836;28;20032;-85
2023/04/05 12:08:22;;;;;;;5.68;3.28;;;19.50;74.80;;;;;;5090867;28;20388;-84
2023/04/05 12:11:00;;;;;;;5.60;3.25;;;19.30;75.80;;;;;;5089464;28;20054;-84
2023/04/05 12:13:27;;;;;;;11.02;3.33;;;19.70;73.00;;;;;;5075843;28;20122;-84
2023/04/05 12:15:52;;;;;;;5.40;3.45;;;19.80;74.80;;;;;;5109216;28;20039;-84
2023/04/05 12:18:19;;;;;;;6.68;3.40;;;18.70;74.70;;;;;;5089264;28;20031;-84
2023/04/05 12:20:45;;;;;;;4.47;3.33;;;19.30;75.10;;;;;;5092675;28;20028;-87
2023/04/05 12:23:11;;;;;;;5.32;3.13;;;19.10;74.60;;;;;;5090884;28;20024;-84
2023/04/05 12:25:37;;;;;;;5.68;3.10;;;18.90;74.20;;;;;;5107881;28;20453;-85
2023/04/05 12:28:07;;;;;;;5.45;3.25;;;18.60;73.70;;;;;;5090923;28;20483;-84
2023/04/05 12:30:36;;;;;;;6.13;2.88;;;18.10;75.20;;;;;;5057346;28;20040;-85
2023/04/05 12:33:08;;;;;;;4.28;2.67;;;18.50;76.10;;;;;;5089937;28;20028;-85
2023/04/05 12:35:34;;;;;;;6.00;3.53;;;19.20;75.60;;;;;;5090765;28;20070;-85
2023/04/05 12:38:02;;;;;;;4.63;3.05;;;19.30;75.00;;;;;;5091622;28;20032;-85
2023/04/05 12:40:31;;;;;;;4.78;3.08;;;20.10;74.40;;;;;;5090058;28;20399;-85
2023/04/05 12:43:06;;;;;;;5.10;2.75;;;19.60;73.30;;;;;;5091811;28;20066;-85
2023/04/05 12:45:38;;;;;;;4.60;3.08;;;19.60;73.80;;;;;;5090864;28;20044;-85
2023/04/05 12:48:19;;;;;;;5.10;2.95;;;19.50;74.60;;;;;;5108467;28;20096;-85
2023/04/05 12:50:47;;;;;;;4.93;3.10;;;19.20;74.80;;;;;;5090777;28;20039;-85
2023/04/05 12:53:24;;;;;;;4.72;3.38;;;20.00;74.60;;;;;;5089513;28;20046;-84
2023/04/05 12:55:54;;;;;;;4.65;3.20;;;20.50;73.40;;;;;;5104011;28;20541;-85
2023/04/05 12:58:34;;;;;;;5.53;3.50;;;19.40;72.30;;;;;;5106101;28;20088;-85
2023/04/05 13:01:00;;;;;;;5.00;3.17;;;18.90;72.90;;;;;;5075936;28;20032;-86
2023/04/05 13:03:26;;;;;;;4.43;2.95;;;19.20;74.50;;;;;;5091721;28;20044;-86